Time;durP1;ratioP1;P1;durP2;ratioP2;P2;SDS_P1;SDS_P2;PMS_P1;PMS_P2;Temp;Humidity;BMP_temperature;BMP_pressure;BME280_temperature;BME280_humidity;BME280_pressure;Samples;Min_cycle;Max_cycle;Signal;HPM_P1;HPM_P2
2022/12/07 00:01:53;;;;;;;18.60;10.43;;;2.50;99.90;;;;;;10387852;28;20204;-88
2022/12/07 00:07:15;;;;;;;16.40;10.47;;;2.60;99.90;;;;;;10385214;28;20197;-80
2022/12/07 00:12:36;;;;;;;16.47;10.40;;;2.50;99.90;;;;;;10398663;28;20216;-78
2022/12/07 00:17:57;;;;;;;16.90;9.87;;;2.50;99.90;;;;;;10384579;28;20224;-78
2022/12/07 00:23:18;;;;;;;15.57;10.00;;;2.50;99.90;;;;;;10402691;28;20201;-78
2022/12/07 00:28:40;;;;;;;17.17;9.97;;;2.50;99.90;;;;;;10388359;28;20524;-82
2022/12/07 00:34:01;;;;;;;17.70;10.53;;;2.50;99.90;;;;;;10397517;28;20383;-79
2022/12/07 00:39:23;;;;;;;15.20;9.10;;;2.50;99.90;;;;;;10397427;28;20189;-79
2022/12/07 00:44:44;;;;;;;14.20;8.93;;;2.50;99.90;;;;;;10342652;28;20227;-78
2022/12/07 00:50:05;;;;;;;13.93;8.73;;;2.50;99.90;;;;;;10381172;28;20250;-79
2022/12/07 00:55:33;;;;;;;15.73;9.23;;;2.50;99.90;;;;;;10383102;28;20205;-80
2022/12/07 01:01:01;;;;;;;17.67;9.80;;;2.50;99.90;;;;;;10383283;28;20207;-90
2022/12/07 01:06:24;;;;;;;13.37;9.13;;;2.50;99.90;;;;;;10399189;28;20189;-80
2022/12/07 01:11:44;;;;;;;14.63;8.37;;;2.50;99.90;;;;;;10398828;28;20589;-87
2022/12/07 01:17:06;;;;;;;13.97;8.43;;;2.50;99.90;;;;;;10386094;28;20662;-89
2022/12/07 01:22:27;;;;;;;14.30;8.23;;;2.50;99.90;;;;;;10397282;28;20246;-88
2022/12/07 01:27:48;;;;;;;14.67;8.93;;;2.50;99.90;;;;;;10382718;28;20381;-78
2022/12/07 01:33:10;;;;;;;13.20;7.57;;;2.50;99.90;;;;;;10382504;28;20291;-79
2022/12/07 01:38:32;;;;;;;14.10;7.63;;;2.60;99.90;;;;;;10382436;28;20185;-79
2022/12/07 01:44:23;;;;;;;12.97;7.43;;;2.50;99.90;;;;;;10381265;28;20568;-79
2022/12/07 01:49:48;;;;;;;10.77;6.90;;;2.50;99.90;;;;;;10381304;28;20241;-79
2022/12/07 01:55:13;;;;;;;10.60;7.13;;;2.50;99.90;;;;;;10383317;28;20201;-80
2022/12/07 02:00:34;;;;;;;9.70;6.00;;;2.50;99.90;;;;;;10394553;28;20369;-79
2022/12/07 02:05:56;;;;;;;10.00;6.63;;;2.50;99.90;;;;;;10394825;28;20188;-81
2022/12/07 02:11:17;;;;;;;8.53;6.20;;;2.60;99.90;;;;;;10394916;28;20216;-80
2022/12/07 02:16:53;;;;;;;8.07;5.90;;;2.60;99.90;;;;;;10384902;28;20193;-78
2022/12/07 02:22:27;;;;;;;8.57;5.50;;;2.60;99.90;;;;;;10393558;28;20223;-82
2022/12/07 02:28:01;;;;;;;8.63;5.70;;;2.60;99.90;;;;;;10409333;28;20420;-79
2022/12/07 02:33:45;;;;;;;7.67;5.33;;;2.70;99.90;;;;;;10402268;28;20259;-80
2022/12/07 02:39:18;;;;;;;6.23;4.60;;;2.60;99.90;;;;;;10388199;28;20517;-85
2022/12/07 02:44:40;;;;;;;5.33;4.27;;;2.70;99.90;;;;;;10402405;28;20243;-80
2022/12/07 02:50:04;;;;;;;5.23;3.80;;;2.70;99.90;;;;;;10401484;28;20312;-82
2022/12/07 02:55:33;;;;;;;5.00;3.73;;;2.80;99.90;;;;;;10373858;28;20493;-80
2022/12/07 03:01:11;;;;;;;5.40;4.10;;;2.70;99.90;;;;;;10387818;28;20208;-86
2022/12/07 03:06:42;;;;;;;5.33;3.60;;;2.70;99.90;;;;;;10346758;28;20274;-82
2022/12/07 03:12:15;;;;;;;8.03;5.53;;;2.80;99.90;;;;;;10360685;28;20285;-81
2022/12/07 03:17:39;;;;;;;4.60;3.90;;;2.80;99.90;;;;;;10360485;28;20193;-84
2022/12/07 03:23:03;;;;;;;6.20;3.70;;;2.90;99.90;;;;;;10412359;28;20292;-79
2022/12/07 03:28:31;;;;;;;4.67;3.40;;;2.90;99.90;;;;;;10410167;28;20254;-81
2022/12/07 03:34:06;;;;;;;3.77;3.10;;;2.90;99.90;;;;;;10401799;28;20193;-83
2022/12/07 03:39:48;;;;;;;3.30;2.83;;;2.90;99.90;;;;;;10400584;28;20193;-81
2022/12/07 03:45:11;;;;;;;3.33;3.03;;;2.90;99.90;;;;;;10399887;28;20197;-80
2022/12/07 03:51:00;;;;;;;4.33;3.00;;;3.00;99.90;;;;;;10399017;28;20578;-80
2022/12/07 03:56:22;;;;;;;3.37;2.80;;;2.90;99.90;;;;;;10385363;28;20275;-81
2022/12/07 04:01:44;;;;;;;4.37;2.60;;;3.00;99.90;;;;;;10399934;28;20196;-79
2022/12/07 04:07:06;;;;;;;4.53;3.00;;;3.00;99.90;;;;;;10399127;28;20188;-82
2022/12/07 04:12:27;;;;;;;4.27;3.60;;;2.90;99.90;;;;;;10384866;28;20483;-84
2022/12/07 04:17:49;;;;;;;4.43;3.20;;;3.00;99.90;;;;;;10401176;28;20201;-86
2022/12/07 04:23:10;;;;;;;3.53;3.07;;;2.90;99.90;;;;;;10431303;28;20192;-82
2022/12/07 04:28:32;;;;;;;3.93;2.77;;;3.00;99.90;;;;;;10386600;28;20205;-81
2022/12/07 04:33:53;;;;;;;2.43;2.10;;;3.00;99.90;;;;;;10398520;28;20235;-86
2022/12/07 04:39:26;;;;;;;2.30;2.10;;;3.00;99.90;;;;;;10396504;28;20220;-83
2022/12/07 04:44:47;;;;;;;2.43;2.10;;;3.00;99.90;;;;;;10400466;28;20197;-83
2022/12/07 04:50:10;;;;;;;3.40;2.10;;;2.90;99.90;;;;;;10397186;28;20240;-84
2022/12/07 04:55:32;;;;;;;2.50;2.17;;;2.90;99.90;;;;;;10382612;28;20193;-82
2022/12/07 05:00:56;;;;;;;2.73;2.30;;;2.90;99.90;;;;;;10383283;28;20217;-87
2022/12/07 05:06:17;;;;;;;2.87;1.97;;;2.80;99.90;;;;;;10382970;28;20197;-86
2022/12/07 05:11:38;;;;;;;5.63;2.57;;;2.90;99.90;;;;;;10382852;28;20243;-86
2022/12/07 05:17:00;;;;;;;7.80;3.17;;;2.90;99.90;;;;;;10382184;28;20193;-80
2022/12/07 05:22:21;;;;;;;4.00;2.47;;;2.90;99.90;;;;;;10381712;28;20275;-81
2022/12/07 05:27:42;;;;;;;5.57;2.57;;;2.90;99.90;;;;;;10395915;28;20196;-82
2022/12/07 05:33:05;;;;;;;4.13;2.63;;;2.80;99.90;;;;;;10386932;28;20235;-80
2022/12/07 05:38:32;;;;;;;2.13;1.93;;;2.80;99.90;;;;;;10368935;28;20200;-82
2022/12/07 05:43:53;;;;;;;2.77;2.43;;;2.90;99.90;;;;;;10397713;28;20377;-81
2022/12/07 05:49:14;;;;;;;4.27;2.40;;;2.80;99.90;;;;;;10382010;28;20244;-81
2022/12/07 05:54:35;;;;;;;3.27;2.97;;;2.80;99.90;;;;;;10367676;28;20423;-81
2022/12/07 05:59:57;;;;;;;4.83;3.50;;;2.80;99.90;;;;;;10381361;28;20234;-81
2022/12/07 06:05:18;;;;;;;5.80;3.50;;;2.70;99.90;;;;;;10395326;28;20196;-80
2022/12/07 06:10:41;;;;;;;4.40;3.30;;;2.70;99.90;;;;;;10380885;28;20481;-82
2022/12/07 06:16:02;;;;;;;3.77;3.20;;;2.70;99.90;;;;;;10397188;28;20197;-81
2022/12/07 06:21:25;;;;;;;4.63;3.37;;;2.70;99.90;;;;;;10395483;28;20197;-86
2022/12/07 06:26:47;;;;;;;5.27;3.20;;;2.70;99.90;;;;;;10395497;28;20205;-82
2022/12/07 06:32:09;;;;;;;4.37;3.50;;;2.70;99.90;;;;;;10396153;28;20228;-85
2022/12/07 06:37:30;;;;;;;5.50;3.73;;;2.70;99.90;;;;;;10400025;28;20284;-84
2022/12/07 06:42:52;;;;;;;5.13;3.57;;;2.80;99.90;;;;;;10384789;28;20212;-85
2022/12/07 06:48:13;;;;;;;4.93;3.60;;;2.80;99.90;;;;;;10366959;28;20243;-85
2022/12/07 06:53:35;;;;;;;4.23;3.43;;;3.00;99.90;;;;;;10382730;28;20224;-85
2022/12/07 06:58:56;;;;;;;4.50;3.43;;;3.00;99.90;;;;;;10395888;28;20196;-85
2022/12/07 07:04:18;;;;;;;4.43;3.30;;;2.90;99.90;;;;;;10397870;28;20510;-84
2022/12/07 07:09:39;;;;;;;4.40;3.20;;;2.80;99.90;;;;;;10418491;28;20221;-84
2022/12/07 07:15:00;;;;;;;3.60;3.10;;;2.80;99.90;;;;;;10412373;28;20280;-83
2022/12/07 07:20:22;;;;;;;3.13;2.70;;;2.80;99.90;;;;;;10379784;28;20208;-83
2022/12/07 07:25:44;;;;;;;3.60;2.80;;;2.80;99.90;;;;;;10372669;28;20230;-85
2022/12/07 07:31:06;;;;;;;4.20;3.30;;;2.80;99.90;;;;;;10390762;28;20430;-84
2022/12/07 07:36:27;;;;;;;6.07;3.53;;;2.70;99.90;;;;;;10386997;28;20275;-83
2022/12/07 07:41:48;;;;;;;4.73;3.20;;;2.70;99.90;;;;;;10389012;28;20502;-84
2022/12/07 07:47:17;;;;;;;3.33;2.87;;;2.60;99.90;;;;;;10400259;28;20282;-86
2022/12/07 07:52:39;;;;;;;4.57;2.80;;;2.60;99.90;;;;;;10387457;28;20240;-84
2022/12/07 07:58:00;;;;;;;4.67;3.37;;;2.60;99.90;;;;;;10402596;28;20199;-84
2022/12/07 08:03:22;;;;;;;6.17;4.50;;;2.60;99.90;;;;;;10387458;28;20446;-82
2022/12/07 08:08:43;;;;;;;5.67;4.43;;;2.50;99.90;;;;;;10400490;28;20496;-88
2022/12/07 08:14:04;;;;;;;4.00;3.53;;;2.50;99.90;;;;;;10371590;28;20250;-82
2022/12/07 08:19:26;;;;;;;5.80;4.30;;;2.50;99.90;;;;;;10395821;28;20188;-85
2022/12/07 08:24:47;;;;;;;5.23;4.37;;;2.60;99.90;;;;;;10369360;28;20211;-86
2022/12/07 08:30:09;;;;;;;5.80;4.17;;;2.60;99.90;;;;;;10381653;28;20626;-85
2022/12/07 08:35:33;;;;;;;8.20;5.80;;;2.70;99.90;;;;;;10380416;28;20272;-87
2022/12/07 08:40:56;;;;;;;5.73;4.73;;;2.70;99.90;;;;;;10366670;28;20272;-83
2022/12/07 08:46:26;;;;;;;7.13;5.20;;;2.70;99.90;;;;;;10379303;28;20201;-85
2022/12/07 08:51:48;;;;;;;13.77;8.53;;;2.70;99.90;;;;;;10378412;28;20248;-82
2022/12/07 08:57:11;;;;;;;7.57;5.67;;;2.60;99.90;;;;;;10380097;28;20201;-83
2022/12/07 09:02:32;;;;;;;7.03;5.63;;;2.70;99.90;;;;;;10366511;28;20522;-86
2022/12/07 09:07:57;;;;;;;6.70;4.83;;;2.60;99.90;;;;;;10362353;28;20270;-84
2022/12/07 09:13:18;;;;;;;4.87;4.17;;;2.60;99.90;;;;;;10398091;28;20227;-82
2022/12/07 09:18:39;;;;;;;6.50;5.23;;;2.60;99.90;;;;;;10390884;28;20201;-81
2022/12/07 09:24:01;;;;;;;6.97;5.33;;;2.60;99.90;;;;;;10387632;28;20207;-81
2022/12/07 09:29:22;;;;;;;7.97;5.03;;;2.50;99.90;;;;;;10358234;28;20209;-82
2022/12/07 09:34:45;;;;;;;6.70;5.33;;;2.60;99.90;;;;;;10367162;28;20503;-86
2022/12/07 09:40:07;;;;;;;8.10;5.97;;;2.50;99.90;;;;;;10378917;28;20200;-81
2022/12/07 09:45:36;;;;;;;7.47;6.10;;;2.40;99.90;;;;;;10378786;28;20206;-80
2022/12/07 09:51:00;;;;;;;14.40;6.50;;;2.40;99.90;;;;;;10377465;28;20266;-81
2022/12/07 09:56:22;;;;;;;9.40;7.07;;;2.30;99.90;;;;;;10376449;28;20196;-84
2022/12/07 10:01:46;;;;;;;26.77;13.90;;;2.40;99.90;;;;;;10398483;28;20364;-86
2022/12/07 10:07:07;;;;;;;16.13;10.17;;;2.40;99.90;;;;;;10400878;28;20189;-86
2022/12/07 10:12:29;;;;;;;8.30;5.80;;;2.50;99.90;;;;;;10378716;28;20236;-87
2022/12/07 10:17:52;;;;;;;9.20;6.27;;;2.50;99.90;;;;;;10383753;28;20213;-84
2022/12/07 10:23:15;;;;;;;19.70;11.70;;;2.40;99.90;;;;;;10372259;28;20201;-85
2022/12/07 10:28:37;;;;;;;12.00;7.93;;;2.40;99.90;;;;;;10377550;28;20414;-83
2022/12/07 10:34:01;;;;;;;12.20;8.20;;;2.40;99.90;;;;;;10389068;28;20240;-83
2022/12/07 10:39:23;;;;;;;14.43;9.10;;;2.30;99.90;;;;;;10362446;28;20285;-84
2022/12/07 10:44:45;;;;;;;7.03;5.97;;;2.40;99.90;;;;;;10388698;28;20413;-83
2022/12/07 10:50:28;;;;;;;12.83;8.60;;;2.40;99.90;;;;;;10375944;28;20252;-83
2022/12/07 10:56:02;;;;;;;11.50;7.87;;;2.40;99.90;;;;;;10382482;28;20207;-84
2022/12/07 11:01:28;;;;;;;16.90;10.00;;;2.50;99.90;;;;;;10387015;28;20205;-86
2022/12/07 11:07:31;;;;;;;9.50;7.13;;;2.50;1.00;;;;;;10385036;28;20204;-84
2022/12/07 11:13:02;;;;;;;10.43;7.10;;;2.50;1.00;;;;;;10260286;28;20246;-85
2022/12/07 11:18:35;;;;;;;14.10;8.67;;;2.60;1.00;;;;;;10246155;28;20227;-82
2022/12/07 11:24:16;;;;;;;13.40;9.80;;;2.50;1.00;;;;;;10302292;28;20253;-83
2022/12/07 11:29:43;;;;;;;16.27;10.63;;;2.60;1.00;;;;;;10285229;28;20234;-86
2022/12/07 11:35:33;;;;;;;17.97;11.30;;;2.60;1.00;;;;;;10288588;28;20217;-83
2022/12/07 11:41:12;;;;;;;13.43;9.20;;;2.70;1.00;;;;;;10319893;28;20205;-83
2022/12/07 11:46:53;;;;;;;15.63;10.40;;;2.60;1.00;;;;;;10327475;28;20519;-85
2022/12/07 11:52:34;;;;;;;17.23;10.53;;;2.60;1.00;;;;;;10438292;22;20211;-82
2022/12/07 11:58:30;;;;;;;18.63;8.83;;;2.60;1.00;;;;;;10432252;22;20263;-81
2022/12/07 12:04:08;;;;;;;25.57;11.60;;;2.70;1.00;;;;;;10400158;28;20212;-79
2022/12/07 12:09:59;;;;;;;15.53;9.10;;;2.60;1.00;;;;;;10391523;28;20197;-81
2022/12/07 12:16:22;;;;;;;22.50;11.13;;;2.60;1.00;;;;;;10414833;28;20223;-81
2022/12/07 12:22:03;;;;;;;21.60;11.07;;;2.60;1.00;;;;;;10347345;28;20211;-82
2022/12/07 12:27:30;;;;;;;23.77;12.13;;;2.60;1.00;;;;;;10344380;28;20206;-81
2022/12/07 12:32:52;;;;;;;16.33;8.53;;;2.60;1.00;;;;;;10343151;28;20237;-81
2022/12/07 12:38:30;;;;;;;19.63;9.57;;;2.60;1.00;;;;;;10369281;28;20357;-81
2022/12/07 12:43:52;;;;;;;19.77;9.23;;;2.60;1.00;;;;;;10381376;28;20505;-82
2022/12/07 12:49:19;;;;;;;13.43;8.53;;;2.60;1.00;;;;;;10380272;28;20250;-81
2022/12/07 12:55:07;;;;;;;29.67;14.13;;;2.60;1.00;;;;;;10377343;28;20637;-82
2022/12/07 13:00:30;;;;;;;12.53;7.27;;;2.60;1.00;;;;;;10358395;28;20228;-88
2022/12/07 13:06:24;;;;;;;7.33;5.33;;;2.50;1.00;;;;;;10384269;28;20199;-82
2022/12/07 13:11:46;;;;;;;9.77;6.27;;;2.50;1.00;;;;;;10396889;28;20302;-83
2022/12/07 13:17:31;;;;;;;10.50;6.83;;;2.50;1.00;;;;;;10375218;28;20223;-83
2022/12/07 13:22:57;;;;;;;8.83;5.60;;;2.50;1.00;;;;;;10392694;28;20211;-82
2022/12/07 13:28:21;;;;;;;11.70;7.10;;;2.50;1.00;;;;;;10393160;28;20269;-82
2022/12/07 13:33:45;;;;;;;11.33;7.10;;;2.40;1.00;;;;;;10377371;28;20231;-81
2022/12/07 13:39:22;;;;;;;8.53;6.67;;;2.40;1.00;;;;;;10336967;28;20200;-80
2022/12/07 13:44:43;;;;;;;10.00;6.20;;;2.30;1.00;;;;;;10390765;28;20450;-81
2022/12/07 13:50:26;;;;;;;8.50;6.43;;;2.40;1.00;;;;;;10380632;28;20208;-88
2022/12/07 13:55:49;;;;;;;8.27;5.33;;;2.30;1.00;;;;;;10376294;28;20228;-81
2022/12/07 14:01:19;;;;;;;11.33;6.50;;;2.30;1.00;;;;;;10392343;28;20181;-82
2022/12/07 14:06:57;;;;;;;7.73;5.97;;;2.30;1.00;;;;;;10409247;28;20217;-80
2022/12/07 14:12:19;;;;;;;9.47;6.40;;;2.30;1.00;;;;;;10405102;28;20251;-80
2022/12/07 14:24:24;;;;;;;10.43;6.77;;;2.30;1.00;;;;;;10594672;27;20560;-83
2022/12/07 14:29:47;;;;;;;10.17;6.83;;;2.30;1.00;;;;;;10581064;28;20197;-86
2022/12/07 14:35:10;;;;;;;9.97;6.60;;;2.20;1.00;;;;;;10612559;27;20208;-84
2022/12/07 14:40:32;;;;;;;8.80;6.53;;;2.20;1.00;;;;;;10582860;28;20230;-87
2022/12/07 14:45:54;;;;;;;9.30;6.13;;;2.30;1.00;;;;;;10563746;28;20484;-84
2022/12/07 14:51:15;;;;;;;12.00;6.77;;;2.30;1.00;;;;;;10565192;28;20210;-85
2022/12/07 14:56:56;;;;;;;11.70;6.27;;;2.30;1.00;;;;;;10535932;28;20201;-84
2022/12/07 15:02:17;;;;;;;12.20;7.27;;;2.30;1.00;;;;;;10537008;28;20222;-85
2022/12/07 15:07:39;;;;;;;12.97;6.33;;;2.30;1.00;;;;;;10522143;28;20276;-87
2022/12/07 15:18:43;;;;;;;11.73;7.10;;;2.30;1.00;;;;;;10546431;28;20237;-81
2022/12/07 15:24:11;;;;;;;10.03;5.80;;;2.30;1.00;;;;;;10553455;28;20270;-87
2022/12/07 15:29:32;;;;;;;10.50;5.50;;;2.30;1.00;;;;;;10515330;28;20189;-84
2022/12/07 15:34:53;;;;;;;7.97;5.00;;;2.40;1.00;;;;;;10487020;28;20206;-84
2022/12/07 15:40:15;;;;;;;5.77;3.53;;;2.30;1.00;;;;;;10522981;28;20299;-90
2022/12/07 15:45:36;;;;;;;12.83;3.90;;;2.30;1.00;;;;;;10522736;28;20200;-87
2022/12/07 15:51:06;;;;;;;6.50;3.90;;;2.30;1.00;;;;;;10510291;28;20232;-85
2022/12/07 15:56:28;;;;;;;6.43;4.00;;;2.10;1.00;;;;;;10516635;28;20191;-83
2022/12/07 16:01:49;;;;;;;6.97;3.67;;;2.20;1.00;;;;;;10531770;28;20217;-85
2022/12/07 16:07:11;;;;;;;9.27;4.13;;;2.20;1.00;;;;;;10509865;28;20189;-83
2022/12/07 16:12:33;;;;;;;10.67;5.83;;;2.20;1.00;;;;;;10528102;28;20197;-84
2022/12/07 16:17:55;;;;;;;9.73;5.33;;;2.20;1.00;;;;;;10523740;28;20271;-83
2022/12/07 16:23:16;;;;;;;11.90;6.87;;;2.00;1.00;;;;;;10522004;28;20297;-82
2022/12/07 16:28:38;;;;;;;9.37;5.40;;;2.00;1.00;;;;;;10537463;28;20196;-84
2022/12/07 16:33:59;;;;;;;8.37;4.87;;;2.00;2.40;;;;;;10504845;28;20204;-82
2022/12/07 16:39:21;;;;;;;7.43;4.20;;;1.80;42.70;;;;;;10521306;28;20197;-89
2022/12/07 16:44:42;;;;;;;6.60;3.83;;;1.70;41.30;;;;;;10520850;28;20194;-87
2022/12/07 16:50:04;;;;;;;10.43;4.60;;;1.70;36.50;;;;;;10522739;28;20209;-89
2022/12/07 16:55:25;;;;;;;6.90;4.00;;;1.70;99.90;;;;;;10507364;28;20588;-82
2022/12/07 17:00:48;;;;;;;7.23;4.43;;;1.70;55.50;;;;;;10509320;28;20225;-81
2022/12/07 17:06:17;;;;;;;4.43;3.50;;;1.70;62.50;;;;;;10511367;28;20329;-82
2022/12/07 17:11:39;;;;;;;8.30;4.07;;;1.70;55.60;;;;;;10523329;28;20205;-85
2022/12/07 17:17:00;;;;;;;8.30;4.57;;;1.70;63.60;;;;;;10527292;28;20208;-80
2022/12/07 17:22:22;;;;;;;7.80;4.50;;;1.70;43.90;;;;;;10523141;28;20304;-84
2022/12/07 17:27:45;;;;;;;7.27;3.97;;;1.70;17.00;;;;;;10512552;28;20202;-82
2022/12/07 17:33:06;;;;;;;8.57;4.90;;;1.60;44.30;;;;;;10508640;28;20199;-82
2022/12/07 17:38:28;;;;;;;4.70;2.67;;;1.70;57.90;;;;;;10521133;28;20185;-81
2022/12/07 17:43:50;;;;;;;5.03;3.30;;;1.70;27.10;;;;;;10508040;28;20498;-82
2022/12/07 17:49:11;;;;;;;4.17;2.73;;;1.70;42.20;;;;;;10524652;28;20269;-82
2022/12/07 17:54:33;;;;;;;5.37;3.17;;;1.70;29.30;;;;;;10507209;28;20224;-82
2022/12/07 17:59:54;;;;;;;4.33;2.73;;;1.70;10.30;;;;;;10493375;28;20269;-82
2022/12/07 18:05:16;;;;;;;5.10;3.13;;;1.70;39.20;;;;;;10506657;28;20240;-81
2022/12/07 18:10:37;;;;;;;5.77;3.63;;;1.70;16.30;;;;;;10506376;28;20235;-81
2022/12/07 18:15:59;;;;;;;5.57;3.20;;;1.70;2.50;;;;;;10519559;28;20460;-81
2022/12/07 18:21:23;;;;;;;4.03;2.50;;;1.70;1.00;;;;;;10519242;28;20238;-84
2022/12/07 18:26:46;;;;;;;3.57;2.00;;;1.70;7.70;;;;;;10504379;28;20303;-83
2022/12/07 18:32:08;;;;;;;3.47;2.33;;;1.70;1.00;;;;;;10504912;28;20242;-82
2022/12/07 18:37:30;;;;;;;5.17;3.07;;;1.70;1.00;;;;;;10519277;28;20213;-81
2022/12/07 18:42:51;;;;;;;7.67;3.20;;;1.60;11.20;;;;;;10491173;28;20427;-81
2022/12/07 18:48:17;;;;;;;5.20;3.30;;;1.60;23.60;;;;;;10504314;28;20206;-81
2022/12/07 18:53:39;;;;;;;5.77;3.47;;;1.50;53.40;;;;;;10504317;28;20266;-86
2022/12/07 19:04:42;;;;;;;3.57;2.03;;;1.50;55.10;;;;;;10478086;28;20221;-81
2022/12/07 19:10:07;;;;;;;3.47;2.27;;;1.60;26.30;;;;;;10469057;28;20203;-82
2022/12/07 19:15:28;;;;;;;7.67;4.23;;;1.60;1.00;;;;;;10511121;28;20208;-81
2022/12/07 19:20:49;;;;;;;8.20;4.17;;;1.50;29.30;;;;;;10525170;28;20246;-84
2022/12/07 19:26:11;;;;;;;5.00;2.77;;;1.50;92.90;;;;;;10512752;28;20218;-80
2022/12/07 19:31:32;;;;;;;5.43;2.63;;;1.50;66.90;;;;;;10525269;28;20276;-80
2022/12/07 19:36:54;;;;;;;3.10;2.03;;;1.50;30.40;;;;;;10525470;28;20276;-81
2022/12/07 19:42:15;;;;;;;2.67;1.60;;;1.50;7.60;;;;;;10528867;28;20270;-84
2022/12/07 19:47:36;;;;;;;2.43;1.23;;;1.60;1.00;;;;;;10510029;28;20390;-81
2022/12/07 19:52:57;;;;;;;1.10;0.93;;;1.50;1.00;;;;;;10510125;28;20228;-81
2022/12/07 19:58:18;;;;;;;5.97;1.80;;;1.50;1.00;;;;;;10534165;28;20189;-83
2022/12/07 20:03:40;;;;;;;2.33;1.13;;;1.50;1.00;;;;;;10524758;28;20220;-84
2022/12/07 20:09:02;;;;;;;1.57;1.20;;;1.40;1.00;;;;;;10515379;28;20197;-81
2022/12/07 20:14:23;;;;;;;1.67;1.17;;;1.30;1.00;;;;;;10510229;28;20208;-81
2022/12/07 20:19:44;;;;;;;1.50;1.00;;;1.30;1.00;;;;;;10508697;28;20237;-83
2022/12/07 20:32:32;;;;;;;0.70;0.70;;;1.40;1.00;;;;;;10522751;28;20182;-80
2022/12/07 20:37:54;;;;;;;1.30;1.20;;;1.40;1.00;;;;;;10528012;28;20268;-80
2022/12/07 20:43:15;;;;;;;1.13;0.93;;;1.40;1.00;;;;;;10527721;28;20227;-80
2022/12/07 20:48:36;;;;;;;2.13;0.80;;;1.40;1.00;;;;;;10508254;28;20197;-80
2022/12/07 20:53:57;;;;;;;1.90;1.13;;;1.40;1.00;;;;;;10504030;28;20247;-80
2022/12/07 20:59:18;;;;;;;2.90;1.47;;;1.40;1.00;;;;;;10486581;28;20202;-81
2022/12/07 21:04:40;;;;;;;1.93;1.30;;;1.30;1.00;;;;;;10508564;28;20224;-82
2022/12/07 21:10:04;;;;;;;2.77;1.73;;;1.40;1.00;;;;;;10493937;28;20221;-82
2022/12/07 21:15:25;;;;;;;1.77;1.30;;;1.40;1.00;;;;;;10506503;28;20211;-82
2022/12/07 21:20:46;;;;;;;1.83;1.23;;;1.30;1.00;;;;;;10520729;28;20483;-83
2022/12/07 21:26:10;;;;;;;0.80;0.80;;;1.30;1.00;;;;;;10506395;28;20210;-81
2022/12/07 21:31:32;;;;;;;1.73;1.20;;;1.20;1.00;;;;;;10506477;28;20197;-80
2022/12/07 21:36:52;;;;;;;1.83;1.20;;;1.20;1.00;;;;;;10505915;28;20518;-82
2022/12/07 21:42:14;;;;;;;3.03;1.30;;;1.30;1.00;;;;;;10506420;28;20230;-81
2022/12/07 21:47:35;;;;;;;1.23;0.90;;;1.30;1.00;;;;;;10506740;28;20198;-81
2022/12/07 21:52:57;;;;;;;1.60;1.20;;;1.30;1.00;;;;;;10506012;28;20252;-86
2022/12/07 21:58:18;;;;;;;1.37;1.00;;;1.40;1.00;;;;;;10505673;28;20198;-81
2022/12/07 22:03:39;;;;;;;1.57;1.00;;;1.30;1.00;;;;;;10522164;28;20236;-81
2022/12/07 22:09:02;;;;;;;1.37;1.10;;;1.30;1.00;;;;;;10533710;28;20194;-81
2022/12/07 22:20:03;;;;;;;2.20;1.40;;;1.20;1.00;;;;;;10522149;28;20262;-81
2022/12/07 22:25:24;;;;;;;2.30;1.37;;;1.20;1.00;;;;;;10519587;28;20251;-81
2022/12/07 22:30:46;;;;;;;1.77;1.50;;;1.20;1.00;;;;;;10490193;28;20213;-81
2022/12/07 22:36:09;;;;;;;1.90;1.43;;;1.20;1.00;;;;;;10518337;28;20256;-88
2022/12/07 22:41:31;;;;;;;2.03;1.40;;;1.20;1.00;;;;;;10504186;28;20225;-81
2022/12/07 22:46:52;;;;;;;1.63;1.20;;;1.20;1.00;;;;;;10527728;28;20193;-81
2022/12/07 22:52:13;;;;;;;1.67;1.30;;;1.20;1.00;;;;;;10512210;28;20221;-84
2022/12/07 22:57:35;;;;;;;3.27;1.27;;;1.20;1.00;;;;;;10508375;28;20198;-83
2022/12/07 23:02:56;;;;;;;1.47;0.90;;;1.20;1.00;;;;;;10511679;28;20248;-83
2022/12/07 23:08:17;;;;;;;3.37;1.40;;;1.30;1.00;;;;;;10498175;28;20202;-81
2022/12/07 23:13:40;;;;;;;1.47;1.27;;;1.30;1.00;;;;;;10513622;28;20206;-81
2022/12/07 23:19:01;;;;;;;1.30;0.90;;;1.30;1.00;;;;;;10513163;28;20193;-83
2022/12/07 23:24:22;;;;;;;2.17;1.10;;;1.20;1.00;;;;;;10525728;28;20425;-85
2022/12/07 23:29:43;;;;;;;0.70;0.70;;;1.20;1.00;;;;;;10497186;28;20204;-82
2022/12/07 23:35:05;;;;;;;1.10;0.90;;;1.20;1.00;;;;;;10538891;28;20243;-81
2022/12/07 23:40:26;;;;;;;0.90;0.90;;;1.20;1.00;;;;;;10523922;28;20396;-80
2022/12/07 23:45:48;;;;;;;1.17;1.00;;;1.20;1.00;;;;;;10538738;28;20243;-81
2022/12/07 23:51:13;;;;;;;1.07;1.00;;;1.20;1.00;;;;;;10523840;28;20201;-82
2022/12/07 23:56:34;;;;;;;1.23;1.07;;;1.20;1.00;;;;;;10509389;28;20437;-81
